createdAt,value
2017-11-06T00:00:37.723Z,4.83
2017-11-06T00:01:37.699Z,4.8
2017-11-06T00:02:37.345Z,4.84
2017-11-06T00:03:37.661Z,4.8
2017-11-06T00:04:37.637Z,4.84
2017-11-06T00:05:37.953Z,4.84
2017-11-06T00:06:37.941Z,4.86
2017-11-06T00:07:37.576Z,4.75
2017-11-06T00:08:37.563Z,4.76
2017-11-06T00:09:37.864Z,4.75
2017-11-06T00:10:37.514Z,4.67
2017-11-06T00:11:37.833Z,4.8
2017-11-06T00:12:37.833Z,4.79
2017-11-06T00:13:37.450Z,4.76
2017-11-06T00:14:37.099Z,4.73
2017-11-06T00:15:37.415Z,4.77
2017-11-06T00:16:37.392Z,4.72
2017-11-06T00:17:37.403Z,4.79
2017-11-06T00:18:37.699Z,4.7
2017-11-06T00:19:37.328Z,4.8
2017-11-06T00:20:37.317Z,4.77
2017-11-06T00:21:36.952Z,4.86
2017-11-06T00:22:36.940Z,4.84
2017-11-06T00:23:37.241Z,4.83
2017-11-06T00:24:37.230Z,4.77
2017-11-06T00:25:37.543Z,4.79
2017-11-06T00:26:36.851Z,4.76
2017-11-06T00:27:37.162Z,4.72
2017-11-06T00:28:37.150Z,4.83
2017-11-06T00:29:37.125Z,4.84
2017-11-06T00:30:37.103Z,4.76
2017-11-06T00:31:37.416Z,4.72
2017-11-06T00:32:37.064Z,4.62
2017-11-06T00:33:37.371Z,4.76
2017-11-06T00:34:36.683Z,4.69
2017-11-06T00:35:37.331Z,4.79
2017-11-06T00:36:36.649Z,4.64
2017-11-06T00:37:36.630Z,4.65
2017-11-06T00:38:36.958Z,4.7
2017-11-06T00:39:37.248Z,4.72
2017-11-06T00:40:36.892Z,4.7
2017-11-06T00:41:36.873Z,4.59
2017-11-06T00:42:36.852Z,4.64
2017-11-06T00:43:37.169Z,4.69
2017-11-06T00:44:36.533Z,4.59
2017-11-06T00:45:36.788Z,4.62
2017-11-06T00:46:36.440Z,4.64
2017-11-06T00:47:36.746Z,4.65
2017-11-06T00:48:37.061Z,4.62
2017-11-06T00:49:36.718Z,4.59
2017-11-06T00:50:37.023Z,4.58
2017-11-06T00:51:36.667Z,4.58
2017-11-06T00:52:36.976Z,4.59
2017-11-06T00:53:36.622Z,4.58
2017-11-06T00:54:36.988Z,4.61
2017-11-06T00:55:36.586Z,4.62
2017-11-06T00:56:36.898Z,4.61
2017-11-06T00:57:36.562Z,4.58
2017-11-06T00:58:36.532Z,4.64
2017-11-06T00:59:36.558Z,4.59
2017-11-06T01:00:36.478Z,4.59
2017-11-06T01:01:36.791Z,4.59
2017-11-06T01:02:36.446Z,4.47
2017-11-06T01:03:36.754Z,4.54
2017-11-06T01:04:36.729Z,4.5
2017-11-06T01:05:36.710Z,4.39
2017-11-06T01:06:36.350Z,4.42
2017-11-06T01:07:36.362Z,4.42
2017-11-06T01:08:36.661Z,4.39
2017-11-06T01:09:35.958Z,4.43
2017-11-06T01:10:36.614Z,4.42
2017-11-06T01:11:36.252Z,4.42
2017-11-06T01:12:36.231Z,4.42
2017-11-06T01:13:36.219Z,4.42
2017-11-06T01:14:36.529Z,4.33
2017-11-06T01:15:36.172Z,4.34
2017-11-06T01:16:36.148Z,4.36
2017-11-06T01:17:36.127Z,4.4
2017-11-06T01:18:35.772Z,4.44
2017-11-06T01:19:35.754Z,4.39
2017-11-06T01:20:36.140Z,4.37
2017-11-06T01:21:36.381Z,4.36
2017-11-06T01:22:35.694Z,4.32
2017-11-06T01:23:36.003Z,4.34
2017-11-06T01:24:36.316Z,4.25
2017-11-06T01:25:36.299Z,4.26
2017-11-06T01:26:35.939Z,4.22
2017-11-06T01:27:35.934Z,4.16
2017-11-06T01:28:36.244Z,4.12
2017-11-06T01:29:35.875Z,4.16
2017-11-06T01:30:35.908Z,4.18
2017-11-06T01:31:35.501Z,4.22
2017-11-06T01:32:35.820Z,4.14
2017-11-06T01:33:36.145Z,4.22
2017-11-06T01:34:36.107Z,4.15
2017-11-06T01:35:36.090Z,4.19
2017-11-06T01:36:35.400Z,4.24
2017-11-06T01:37:35.376Z,4.25
2017-11-06T01:38:35.691Z,4.22
2017-11-06T01:39:35.341Z,4.19
2017-11-06T01:40:35.699Z,4.15
2017-11-06T01:41:35.968Z,4.14
2017-11-06T01:42:35.483Z,4.16
2017-11-06T01:43:35.596Z,4.1
2017-11-06T01:44:35.571Z,4.12
2017-11-06T01:45:35.883Z,4.03
2017-11-06T01:46:35.528Z,4.04
2017-11-06T01:47:35.513Z,4.03
2017-11-06T01:48:35.483Z,4.08
2017-11-06T01:49:35.799Z,4.08
2017-11-06T01:50:35.442Z,4.01
2017-11-06T01:51:35.759Z,4.07
2017-11-06T01:52:35.733Z,4.16
2017-11-06T01:53:35.379Z,4.1
2017-11-06T01:54:35.695Z,4.1
2017-11-06T01:55:35.334Z,4.12
2017-11-06T01:56:35.653Z,4.12
2017-11-06T01:57:34.961Z,4.19
2017-11-06T01:58:35.272Z,4.14
2017-11-06T01:59:35.260Z,4.24
2017-11-06T02:00:35.233Z,4.25
2017-11-06T02:01:35.207Z,4.24
2017-11-06T02:02:35.190Z,4.25
2017-11-06T02:03:34.836Z,4.21
2017-11-06T02:04:35.148Z,4.22
2017-11-06T02:05:34.794Z,4.24
2017-11-06T02:06:34.772Z,4.24
2017-11-06T02:07:35.092Z,4.25
2017-11-06T02:08:35.069Z,4.22
2017-11-06T02:09:35.038Z,4.22
2017-11-06T02:10:35.364Z,4.22
2017-11-06T02:11:34.669Z,4.26
2017-11-06T02:12:34.984Z,4.24
2017-11-06T02:13:34.956Z,4.24
2017-11-06T02:14:35.276Z,4.26
2017-11-06T02:15:35.249Z,4.33
2017-11-06T02:16:34.895Z,4.33
2017-11-06T02:17:34.879Z,4.36
2017-11-06T02:18:35.188Z,4.33
2017-11-06T02:19:35.168Z,4.37
2017-11-06T02:20:35.157Z,4.36
2017-11-06T02:21:35.122Z,4.4
2017-11-06T02:22:35.107Z,4.42
2017-11-06T02:23:35.087Z,4.37
2017-11-06T02:24:35.063Z,4.39
2017-11-06T02:25:34.712Z,4.37
2017-11-06T02:26:35.029Z,4.34
2017-11-06T02:27:34.333Z,4.33
2017-11-06T02:28:34.316Z,4.34
2017-11-06T02:29:34.625Z,4.33
2017-11-06T02:30:34.269Z,4.39
2017-11-06T02:31:34.635Z,4.25
2017-11-06T02:32:34.898Z,4.33
2017-11-06T02:33:34.884Z,4.39
2017-11-06T02:34:34.524Z,4.26
2017-11-06T02:35:34.514Z,4.36
2017-11-06T02:36:34.482Z,4.33
2017-11-06T02:37:34.791Z,4.29
2017-11-06T02:38:34.441Z,4.32
2017-11-06T02:39:34.416Z,4.25
2017-11-06T02:40:34.394Z,4.19
2017-11-06T02:41:34.385Z,4.26
2017-11-06T02:42:34.381Z,4.24
2017-11-06T02:43:34.669Z,4.22
2017-11-06T02:44:34.312Z,4.25
2017-11-06T02:45:34.285Z,4.32
2017-11-06T02:46:33.939Z,4.28
2017-11-06T02:47:34.253Z,4.21
2017-11-06T02:48:33.899Z,4.25
2017-11-06T02:49:34.540Z,4.22
2017-11-06T02:50:34.195Z,4.21
2017-11-06T02:51:34.503Z,4.24
2017-11-06T02:52:33.810Z,4.21
2017-11-06T02:53:34.130Z,4.22
2017-11-06T02:54:34.113Z,4.16
2017-11-06T02:55:34.417Z,4.12
2017-11-06T02:56:34.062Z,4.07
2017-11-06T02:57:34.422Z,4.14
2017-11-06T02:58:34.023Z,4.18
2017-11-06T02:59:34.335Z,4.12
2017-11-06T03:00:33.983Z,4.16
2017-11-06T03:01:33.631Z,4.24
2017-11-06T03:02:34.275Z,4.1
2017-11-06T03:03:34.255Z,4.14
2017-11-06T03:04:33.889Z,4.21
2017-11-06T03:05:33.537Z,4.18
2017-11-06T03:06:33.852Z,4.21
2017-11-06T03:07:34.209Z,4.12
2017-11-06T03:08:33.478Z,4.12
2017-11-06T03:09:33.790Z,4.15
2017-11-06T03:10:33.767Z,4.16
2017-11-06T03:11:33.738Z,4.1
2017-11-06T03:12:34.081Z,4.12
2017-11-06T03:13:33.710Z,4.12
2017-11-06T03:14:34.021Z,4.15
2017-11-06T03:15:33.658Z,4.07
2017-11-06T03:16:33.302Z,4.08
2017-11-06T03:17:33.283Z,4.07
2017-11-06T03:18:33.598Z,4.12
2017-11-06T03:19:33.573Z,4.14
2017-11-06T03:20:33.224Z,4.06
2017-11-06T03:21:33.872Z,4.12
2017-11-06T03:22:33.178Z,4.14
2017-11-06T03:23:33.164Z,4.08
2017-11-06T03:24:33.138Z,4.03
2017-11-06T03:25:33.115Z,4.08
2017-11-06T03:26:33.100Z,4.12
2017-11-06T03:27:33.411Z,4.1
2017-11-06T03:28:33.720Z,4.15
2017-11-06T03:29:33.708Z,4.14
2017-11-06T03:30:33.687Z,4.14
2017-11-06T03:31:33.326Z,4.14
2017-11-06T03:32:32.968Z,4.1
2017-11-06T03:33:33.281Z,4.14
2017-11-06T03:34:33.588Z,4.15
2017-11-06T03:35:33.238Z,4.08
2017-11-06T03:36:33.216Z,4.12
2017-11-06T03:37:33.232Z,4.08
2017-11-06T03:38:33.571Z,4.08
2017-11-06T03:39:33.163Z,4.08
2017-11-06T03:40:33.132Z,4.06
2017-11-06T03:41:33.117Z,4.06
2017-11-06T03:42:33.635Z,4.04
2017-11-06T03:43:33.067Z,4.15
2017-11-06T03:44:33.377Z,4.14
2017-11-06T03:45:33.022Z,4.06
2017-11-06T03:46:32.675Z,4.03
2017-11-06T03:47:32.982Z,4.06
2017-11-06T03:48:33.016Z,4.12
2017-11-06T03:49:32.942Z,4.01
2017-11-06T03:50:32.922Z,4.07
2017-11-06T03:51:32.564Z,4.06
2017-11-06T03:52:32.545Z,4.03
2017-11-06T03:53:32.858Z,4
2017-11-06T03:54:32.509Z,4.03
2017-11-06T03:55:32.482Z,3.96
2017-11-06T03:56:33.121Z,3.96
2017-11-06T03:57:32.777Z,4
2017-11-06T03:58:32.758Z,3.97
2017-11-06T03:59:32.727Z,3.97
2017-11-06T04:00:32.716Z,4
2017-11-06T04:01:32.695Z,3.97
2017-11-06T04:02:32.668Z,3.94
2017-11-06T04:03:32.641Z,3.88
2017-11-06T04:04:32.621Z,3.86
2017-11-06T04:05:32.601Z,3.86
2017-11-06T04:06:32.917Z,3.86
2017-11-06T04:07:32.913Z,3.9
2017-11-06T04:08:32.539Z,3.96
2017-11-06T04:09:32.853Z,3.94
2017-11-06T04:10:32.834Z,3.88
2017-11-06T04:11:32.473Z,3.83
2017-11-06T04:12:32.451Z,3.86
2017-11-06T04:13:32.463Z,3.85
2017-11-06T04:14:32.756Z,3.78
2017-11-06T04:15:32.392Z,3.78
2017-11-06T04:16:32.710Z,3.78
2017-11-06T04:17:32.348Z,3.72
2017-11-06T04:18:32.667Z,3.75
2017-11-06T04:19:32.639Z,3.71
2017-11-06T04:20:32.621Z,3.75
2017-11-06T04:21:32.599Z,3.72
2017-11-06T04:22:32.237Z,3.83
2017-11-06T04:23:32.230Z,3.85
2017-11-06T04:24:32.535Z,3.75
2017-11-06T04:25:31.844Z,3.79
2017-11-06T04:26:31.822Z,3.76
2017-11-06T04:27:32.495Z,3.78
2017-11-06T04:28:32.121Z,3.88
2017-11-06T04:29:32.425Z,3.86
2017-11-06T04:30:32.071Z,3.86
2017-11-06T04:31:32.050Z,3.82
2017-11-06T04:32:32.033Z,3.83
2017-11-06T04:33:32.012Z,3.9
2017-11-06T04:34:31.988Z,3.82
2017-11-06T04:35:31.962Z,3.83
2017-11-06T04:36:31.948Z,3.83
2017-11-06T04:37:32.253Z,3.86
2017-11-06T04:38:31.921Z,3.83
2017-11-06T04:39:31.877Z,3.85
2017-11-06T04:40:31.857Z,3.83
2017-11-06T04:41:31.839Z,3.85
2017-11-06T04:42:32.182Z,3.83
2017-11-06T04:43:32.133Z,3.8
2017-11-06T04:44:31.776Z,3.83
2017-11-06T04:45:31.751Z,3.75
2017-11-06T04:46:31.731Z,3.89
2017-11-06T04:47:31.707Z,3.82
2017-11-06T04:48:31.356Z,3.75
2017-11-06T04:49:31.719Z,3.88
2017-11-06T04:50:31.321Z,3.85
2017-11-06T04:51:31.623Z,3.86
2017-11-06T04:52:31.942Z,3.89
2017-11-06T04:53:31.936Z,3.94
2017-11-06T04:54:31.558Z,4
2017-11-06T04:55:31.875Z,3.97
2017-11-06T04:56:31.850Z,4
2017-11-06T04:57:31.829Z,4
2017-11-06T04:58:31.807Z,3.96
2017-11-06T04:59:31.837Z,4.01
2017-11-06T05:00:31.097Z,4.01
2017-11-06T05:01:31.077Z,3.96
2017-11-06T05:02:31.752Z,4
2017-11-06T05:03:31.700Z,4
2017-11-06T05:04:31.014Z,4
2017-11-06T05:05:31.325Z,4.03
2017-11-06T05:06:31.308Z,3.94
2017-11-06T05:07:30.953Z,3.96
2017-11-06T05:08:31.636Z,3.97
2017-11-06T05:09:31.244Z,3.98
2017-11-06T05:10:31.556Z,3.94
2017-11-06T05:11:30.866Z,3.97
2017-11-06T05:12:30.846Z,3.97
2017-11-06T05:13:31.161Z,3.9
2017-11-06T05:14:31.139Z,3.89
2017-11-06T05:15:31.114Z,3.92
2017-11-06T05:16:31.090Z,3.88
2017-11-06T05:17:31.412Z,3.92
2017-11-06T05:18:31.383Z,3.85
2017-11-06T05:19:31.026Z,3.86
2017-11-06T05:20:31.007Z,3.72
2017-11-06T05:21:31.329Z,3.8
2017-11-06T05:22:30.962Z,3.86
2017-11-06T05:23:30.941Z,3.82
2017-11-06T05:24:30.588Z,3.82
2017-11-06T05:25:31.285Z,3.88
2017-11-06T05:26:31.214Z,3.88
2017-11-06T05:27:30.875Z,3.88
2017-11-06T05:28:31.180Z,3.9
2017-11-06T05:29:30.821Z,4
2017-11-06T05:30:31.131Z,4.01
2017-11-06T05:31:31.106Z,4.04
2017-11-06T05:32:31.087Z,4.08
2017-11-06T05:33:30.732Z,4.08
2017-11-06T05:34:31.043Z,4.1
2017-11-06T05:35:31.027Z,4.06
2017-11-06T05:36:30.669Z,4.06
2017-11-06T05:37:30.645Z,4.16
2017-11-06T05:38:30.965Z,4.12
2017-11-06T05:39:30.937Z,4.08
2017-11-06T05:40:30.634Z,4.07
2017-11-06T05:41:30.894Z,4.07
2017-11-06T05:42:30.760Z,4.12
2017-11-06T05:43:30.521Z,4.14
2017-11-06T05:44:30.496Z,4.07
2017-11-06T05:45:30.142Z,4.15
2017-11-06T05:46:30.460Z,4.08
2017-11-06T05:47:30.770Z,4.18
2017-11-06T05:48:30.420Z,4.12
2017-11-06T05:49:30.397Z,4.15
2017-11-06T05:50:30.377Z,4.21
2017-11-06T05:51:30.359Z,4.19
2017-11-06T05:52:29.994Z,4.12
2017-11-06T05:53:30.313Z,4.22
2017-11-06T05:54:30.626Z,4.19
2017-11-06T05:55:30.262Z,4.15
2017-11-06T05:56:30.243Z,4.16
2017-11-06T05:57:30.556Z,4.24
2017-11-06T05:58:30.209Z,4.18
2017-11-06T05:59:30.515Z,4.21
2017-11-06T06:00:30.492Z,4.24
2017-11-06T06:01:29.808Z,4.25
2017-11-06T06:02:29.786Z,4.26
2017-11-06T06:03:30.436Z,4.29
2017-11-06T06:04:30.416Z,4.32
2017-11-06T06:05:29.724Z,4.36
2017-11-06T06:06:30.042Z,4.28
2017-11-06T06:07:30.342Z,4.25
2017-11-06T06:08:29.992Z,4.37
2017-11-06T06:09:29.968Z,4.4
2017-11-06T06:10:29.613Z,4.32
2017-11-06T06:11:30.260Z,4.37
2017-11-06T06:12:29.904Z,4.33
2017-11-06T06:13:29.884Z,4.39
2017-11-06T06:14:30.198Z,4.28
2017-11-06T06:15:29.843Z,4.33
2017-11-06T06:16:30.156Z,4.33
2017-11-06T06:17:29.468Z,4.4
2017-11-06T06:18:29.446Z,4.36
2017-11-06T06:19:29.427Z,4.42
2017-11-06T06:20:30.074Z,4.28
2017-11-06T06:21:29.380Z,4.39
2017-11-06T06:22:29.692Z,4.42
2017-11-06T06:23:30.006Z,4.4
2017-11-06T06:24:29.650Z,4.42
2017-11-06T06:25:29.971Z,4.43
2017-11-06T06:26:29.275Z,4.39
2017-11-06T06:27:29.264Z,4.51
2017-11-06T06:28:29.236Z,4.46
2017-11-06T06:29:29.543Z,4.36
2017-11-06T06:30:29.529Z,4.4
2017-11-06T06:31:29.838Z,4.46
2017-11-06T06:32:29.508Z,4.46
2017-11-06T06:33:29.476Z,4.44
2017-11-06T06:34:29.462Z,4.46
2017-11-06T06:35:29.084Z,4.44
2017-11-06T06:36:29.417Z,4.39
2017-11-06T06:37:29.790Z,4.42
2017-11-06T06:38:29.359Z,4.43
2017-11-06T06:39:29.670Z,4.39
2017-11-06T06:40:29.323Z,4.34
2017-11-06T06:41:29.331Z,4.32
2017-11-06T06:42:29.285Z,4.34
2017-11-06T06:43:29.595Z,4.32
2017-11-06T06:44:29.232Z,4.37
2017-11-06T06:45:29.212Z,4.33
2017-11-06T06:46:29.532Z,4.39
2017-11-06T06:47:29.504Z,4.39
2017-11-06T06:48:29.487Z,4.36
2017-11-06T06:49:29.456Z,4.28
2017-11-06T06:50:29.100Z,4.29
2017-11-06T06:51:29.087Z,4.39
2017-11-06T06:52:29.396Z,4.44
2017-11-06T06:53:29.384Z,4.42
2017-11-06T06:54:28.694Z,4.5
2017-11-06T06:55:29.003Z,4.51
2017-11-06T06:56:28.982Z,4.59
2017-11-06T06:57:28.677Z,4.61
2017-11-06T06:58:28.607Z,4.61
2017-11-06T06:59:28.916Z,4.59
2017-11-06T07:00:29.234Z,4.7
2017-11-06T07:01:29.209Z,4.65
2017-11-06T07:02:28.863Z,4.73
2017-11-06T07:03:28.837Z,4.61
2017-11-06T07:04:29.145Z,4.75
2017-11-06T07:05:28.792Z,4.79
2017-11-06T07:06:28.778Z,4.91
2017-11-06T07:07:29.102Z,4.76
2017-11-06T07:08:28.723Z,4.8
2017-11-06T07:09:28.708Z,4.88
2017-11-06T07:10:28.693Z,4.86
2017-11-06T07:11:28.998Z,4.88
2017-11-06T07:12:29.016Z,4.92
2017-11-06T07:13:28.628Z,4.99
2017-11-06T07:14:28.938Z,4.98
2017-11-06T07:15:28.257Z,4.96
2017-11-06T07:16:28.561Z,5.05
2017-11-06T07:17:28.876Z,5.09
2017-11-06T07:18:28.856Z,5.12
2017-11-06T07:19:28.506Z,5.1
2017-11-06T07:20:28.482Z,5.09
2017-11-06T07:21:28.794Z,5.13
2017-11-06T07:22:28.782Z,5.16
2017-11-06T07:23:28.759Z,5.2
2017-11-06T07:24:28.739Z,5.14
2017-11-06T07:25:28.380Z,5.14
2017-11-06T07:26:28.696Z,5.27
2017-11-06T07:27:28.350Z,5.37
2017-11-06T07:28:28.038Z,5.35
2017-11-06T07:29:28.650Z,5.35
2017-11-06T07:30:28.281Z,5.3
2017-11-06T07:31:28.262Z,5.34
2017-11-06T07:32:28.250Z,5.32
2017-11-06T07:33:28.222Z,5.27
2017-11-06T07:34:27.862Z,5.31
2017-11-06T07:35:27.842Z,5.41
2017-11-06T07:36:28.158Z,5.46
2017-11-06T07:37:28.492Z,5.46
2017-11-06T07:38:28.122Z,5.43
2017-11-06T07:39:28.432Z,5.5
2017-11-06T07:40:28.089Z,5.45
2017-11-06T07:41:28.062Z,5.46
2017-11-06T07:42:28.037Z,5.43
2017-11-06T07:43:28.554Z,5.43
2017-11-06T07:44:27.998Z,5.49
2017-11-06T07:45:27.984Z,5.55
2017-11-06T07:46:27.954Z,5.49
2017-11-06T07:47:27.945Z,5.49
2017-11-06T07:48:28.299Z,5.55
2017-11-06T07:49:28.234Z,5.6
2017-11-06T07:50:28.215Z,5.63
2017-11-06T07:51:27.855Z,5.6
2017-11-06T07:52:28.173Z,5.68
2017-11-06T07:53:27.482Z,5.63
2017-11-06T07:54:27.462Z,5.7
2017-11-06T07:55:27.774Z,5.71
2017-11-06T07:56:27.757Z,5.75
2017-11-06T07:57:28.071Z,5.81
2017-11-06T07:58:28.053Z,5.82
2017-11-06T07:59:28.026Z,5.91
2017-11-06T08:00:27.678Z,5.88
2017-11-06T08:01:28.017Z,5.91
2017-11-06T08:02:27.976Z,5.95
2017-11-06T08:03:27.298Z,5.98
2017-11-06T08:04:27.615Z,5.95
2017-11-06T08:05:27.949Z,6.03
2017-11-06T08:06:27.911Z,5.88
2017-11-06T08:07:27.545Z,5.95
2017-11-06T08:08:27.540Z,5.89
2017-11-06T08:09:27.170Z,5.91
2017-11-06T08:10:27.147Z,5.92
2017-11-06T08:11:27.465Z,5.95
2017-11-06T08:12:27.786Z,6
2017-11-06T08:13:27.437Z,5.98
2017-11-06T08:14:27.407Z,5.95
2017-11-06T08:15:27.047Z,5.91
2017-11-06T08:16:27.364Z,6.04
2017-11-06T08:17:27.681Z,5.96
2017-11-06T08:18:27.322Z,5.96
2017-11-06T08:19:27.635Z,6.1
2017-11-06T08:20:27.286Z,6.09
2017-11-06T08:21:27.600Z,6.1
2017-11-06T08:22:27.256Z,6.13
2017-11-06T08:23:27.245Z,6.14
2017-11-06T08:24:27.212Z,6.14
2017-11-06T08:25:26.854Z,6.25
2017-11-06T08:26:26.837Z,6.21
2017-11-06T08:27:27.484Z,6.25
2017-11-06T08:28:26.799Z,6.3
2017-11-06T08:29:27.495Z,6.33
2017-11-06T08:30:26.761Z,6.36
2017-11-06T08:31:27.074Z,6.4
2017-11-06T08:32:26.717Z,6.36
2017-11-06T08:33:27.368Z,6.4
2017-11-06T08:34:26.681Z,6.44
2017-11-06T08:35:26.996Z,6.44
2017-11-06T08:36:26.641Z,6.48
2017-11-06T08:37:26.960Z,6.56
2017-11-06T08:38:27.280Z,6.44
2017-11-06T08:39:27.311Z,6.48
2017-11-06T08:40:26.895Z,6.46
2017-11-06T08:41:26.885Z,6.51
2017-11-06T08:42:26.530Z,6.54
2017-11-06T08:43:27.180Z,6.58
2017-11-06T08:44:27.207Z,6.53
2017-11-06T08:45:27.144Z,6.56
2017-11-06T08:46:26.790Z,6.56
2017-11-06T08:47:26.772Z,6.58
2017-11-06T08:48:26.748Z,6.54
2017-11-06T08:49:26.730Z,6.72
2017-11-06T08:50:27.054Z,6.73
2017-11-06T08:51:26.703Z,6.73
2017-11-06T08:52:26.677Z,6.72
2017-11-06T08:53:27.000Z,6.77
2017-11-06T08:54:26.969Z,6.83
2017-11-06T08:55:26.289Z,6.86
2017-11-06T08:56:26.622Z,6.87
2017-11-06T08:57:26.249Z,6.94
2017-11-06T08:58:26.563Z,6.89
2017-11-06T08:59:26.545Z,6.99
2017-11-06T09:00:26.197Z,6.98
2017-11-06T09:01:26.173Z,6.98
2017-11-06T09:02:26.152Z,7.01
2017-11-06T09:03:26.468Z,6.97
2017-11-06T09:04:26.459Z,6.99
2017-11-06T09:05:26.429Z,6.91
2017-11-06T09:06:26.415Z,6.9
2017-11-06T09:07:26.735Z,6.89
2017-11-06T09:08:26.377Z,6.91
2017-11-06T09:09:26.354Z,6.87
2017-11-06T09:10:26.396Z,6.9
2017-11-06T09:11:26.343Z,6.95
2017-11-06T09:12:26.641Z,6.87
2017-11-06T09:13:26.288Z,6.94
2017-11-06T09:14:26.602Z,6.99
2017-11-06T09:15:26.638Z,6.98
2017-11-06T09:16:26.231Z,7.05
2017-11-06T09:17:26.543Z,7.07
2017-11-06T09:18:26.222Z,7.15
2017-11-06T09:19:26.510Z,7.22
2017-11-06T09:20:26.493Z,7.2
2017-11-06T09:21:26.470Z,7.17
2017-11-06T09:22:25.786Z,7.27
2017-11-06T09:23:26.436Z,7.31
2017-11-06T09:24:26.414Z,7.4
2017-11-06T09:25:26.060Z,7.53
2017-11-06T09:26:26.042Z,7.49
2017-11-06T09:27:25.701Z,7.53
2017-11-06T09:28:25.673Z,7.55
2017-11-06T09:29:26.351Z,7.49
2017-11-06T09:30:26.125Z,7.5
2017-11-06T09:31:25.955Z,7.5
2017-11-06T09:32:25.950Z,7.52
2017-11-06T09:33:25.582Z,7.63
2017-11-06T09:34:26.234Z,7.59
2017-11-06T09:35:25.883Z,7.6
2017-11-06T09:36:25.874Z,7.67
2017-11-06T09:37:26.185Z,7.63
2017-11-06T09:38:26.175Z,7.81
2017-11-06T09:39:26.146Z,7.79
2017-11-06T09:40:26.133Z,7.79
2017-11-06T09:41:26.106Z,7.89
2017-11-06T09:42:25.765Z,7.85
2017-11-06T09:43:26.273Z,7.93
2017-11-06T09:44:26.067Z,7.93
2017-11-06T09:45:25.703Z,8.03
2017-11-06T09:46:26.022Z,8.04
2017-11-06T09:47:25.669Z,8.15
2017-11-06T09:48:25.983Z,8.35
2017-11-06T09:49:25.635Z,8.3
2017-11-06T09:50:25.281Z,8.48
2017-11-06T09:51:26.048Z,8.53
2017-11-06T09:52:25.591Z,8.55
2017-11-06T09:53:25.230Z,8.65
2017-11-06T09:54:25.546Z,8.83
2017-11-06T09:55:25.199Z,9.18
2017-11-06T09:56:25.671Z,9.31
2017-11-06T09:57:25.838Z,9.43
2017-11-06T09:58:25.819Z,9.43
2017-11-06T09:59:25.464Z,9.42
2017-11-06T10:00:25.460Z,9.52
2017-11-06T10:01:25.776Z,9.61
2017-11-06T10:02:25.423Z,9.5
2017-11-06T10:03:25.743Z,9.4
2017-11-06T10:04:25.391Z,9.34
2017-11-06T10:05:25.031Z,9.31
2017-11-06T10:06:25.688Z,9.32
2017-11-06T10:07:25.676Z,9.31
2017-11-06T10:08:25.654Z,9.32
2017-11-06T10:09:25.647Z,9.27
2017-11-06T10:10:24.953Z,9.27
2017-11-06T10:11:25.468Z,9.46
2017-11-06T10:12:25.590Z,9.43
2017-11-06T10:13:25.249Z,9.4
2017-11-06T10:14:25.229Z,9.39
2017-11-06T10:15:25.545Z,9.45
2017-11-06T10:16:25.529Z,9.43
2017-11-06T10:17:24.852Z,9.45
2017-11-06T10:18:25.165Z,9.39
2017-11-06T10:19:25.143Z,9.53
2017-11-06T10:20:25.462Z,9.56
2017-11-06T10:21:24.781Z,9.58
2017-11-06T10:22:25.108Z,9.57
2017-11-06T10:23:25.079Z,9.61
2017-11-06T10:24:25.066Z,9.53
2017-11-06T10:25:25.055Z,9.52
2017-11-06T10:26:24.706Z,9.45
2017-11-06T10:27:25.033Z,9.46
2017-11-06T10:28:25.003Z,9.48
2017-11-06T10:29:25.330Z,9.6
2017-11-06T10:30:24.643Z,9.63
2017-11-06T10:31:24.961Z,9.79
2017-11-06T10:32:25.271Z,9.82
2017-11-06T10:33:25.267Z,9.93
2017-11-06T10:34:24.913Z,9.89
2017-11-06T10:35:24.899Z,10
2017-11-06T10:36:24.880Z,9.89
2017-11-06T10:37:24.864Z,9.91
2017-11-06T10:38:24.849Z,9.83
2017-11-06T10:39:24.839Z,9.73
2017-11-06T10:40:24.823Z,9.68
2017-11-06T10:41:24.815Z,9.75
2017-11-06T10:42:24.794Z,9.63
2017-11-06T10:43:25.106Z,9.66
2017-11-06T10:44:25.094Z,9.6
2017-11-06T10:45:24.413Z,9.56
2017-11-06T10:46:25.070Z,9.61
2017-11-06T10:47:25.047Z,9.58
2017-11-06T10:48:25.038Z,9.61
2017-11-06T10:49:25.022Z,9.7
2017-11-06T10:50:24.999Z,9.71
2017-11-06T10:51:24.654Z,9.73
2017-11-06T10:52:24.696Z,9.79
2017-11-06T10:53:24.634Z,9.85
2017-11-06T10:54:24.616Z,9.81
2017-11-06T10:55:24.924Z,9.93
2017-11-06T10:56:24.243Z,9.79
2017-11-06T10:57:24.558Z,9.75
2017-11-06T10:58:24.882Z,9.7
2017-11-06T10:59:24.533Z,9.7
2017-11-06T11:00:24.519Z,9.79
2017-11-06T11:01:24.833Z,9.79
2017-11-06T11:02:24.485Z,9.89
2017-11-06T11:03:24.829Z,9.86
2017-11-06T11:04:24.796Z,9.99
2017-11-06T11:05:24.773Z,9.94
2017-11-06T11:06:24.757Z,9.97
2017-11-06T11:07:24.406Z,10
2017-11-06T11:08:24.729Z,10.06
2017-11-06T11:09:24.383Z,10.15
2017-11-06T11:10:24.359Z,10.22
2017-11-06T11:11:24.681Z,10.21
2017-11-06T11:12:24.334Z,10.19
2017-11-06T11:13:24.318Z,10.22
2017-11-06T11:14:24.634Z,10.21
2017-11-06T11:15:24.619Z,10.17
2017-11-06T11:16:23.942Z,10.18
2017-11-06T11:17:23.925Z,10.21
2017-11-06T11:18:24.576Z,10
2017-11-06T11:19:23.897Z,10
2017-11-06T11:20:24.213Z,10.03
2017-11-06T11:21:23.864Z,9.89
2017-11-06T11:22:24.212Z,9.94
2017-11-06T11:23:24.167Z,9.91
2017-11-06T11:24:24.152Z,9.97
2017-11-06T11:25:24.145Z,9.86
2017-11-06T11:26:23.785Z,9.85
2017-11-06T11:27:24.108Z,9.86
2017-11-06T11:28:24.481Z,9.93
2017-11-06T11:29:24.090Z,9.91
2017-11-06T11:30:24.064Z,9.85
2017-11-06T11:31:24.045Z,9.81
2017-11-06T11:32:24.030Z,9.86
2017-11-06T11:33:24.011Z,9.85
2017-11-06T11:34:24.355Z,9.93
2017-11-06T11:35:23.984Z,9.91
2017-11-06T11:36:24.301Z,9.99
2017-11-06T11:37:23.956Z,9.97
2017-11-06T11:38:23.951Z,9.93
2017-11-06T11:39:24.263Z,9.93
2017-11-06T11:40:23.907Z,10
2017-11-06T11:41:23.894Z,10.06
2017-11-06T11:42:23.543Z,10.1
2017-11-06T11:43:24.448Z,10.19
2017-11-06T11:44:23.858Z,10.3
2017-11-06T11:45:23.512Z,10.33
2017-11-06T11:46:24.154Z,10.4
2017-11-06T11:47:23.801Z,10.52
2017-11-06T11:48:23.782Z,10.58
2017-11-06T11:49:24.124Z,10.66
2017-11-06T11:50:23.418Z,10.77
2017-11-06T11:51:24.072Z,10.86
2017-11-06T11:52:23.728Z,10.98
2017-11-06T11:53:24.048Z,10.98
2017-11-06T11:54:23.703Z,10.91
2017-11-06T11:55:23.352Z,10.98
2017-11-06T11:56:24.004Z,10.95
2017-11-06T11:57:23.988Z,10.94
2017-11-06T11:58:23.641Z,11.02
2017-11-06T11:59:23.968Z,11.01
2017-11-06T12:00:23.615Z,10.96
2017-11-06T12:01:23.265Z,11.1
2017-11-06T12:02:23.254Z,11.2
2017-11-06T12:03:23.593Z,11.32
2017-11-06T12:04:23.322Z,11.59
2017-11-06T12:05:23.879Z,11.89
2017-11-06T12:06:23.531Z,12.29
2017-11-06T12:07:23.514Z,12.69
2017-11-06T12:08:23.502Z,13.12
2017-11-06T12:09:23.158Z,13.46
2017-11-06T12:10:23.826Z,14.06
2017-11-06T12:11:23.798Z,14.49
2017-11-06T12:12:23.116Z,14.9
2017-11-06T12:13:23.438Z,15.35
2017-11-06T12:14:23.430Z,15.45
2017-11-06T12:15:23.417Z,15.46
2017-11-06T12:16:23.070Z,15.08
2017-11-06T12:17:23.066Z,14.98
2017-11-06T12:18:23.399Z,15.02
2017-11-06T12:19:23.390Z,14.65
2017-11-06T12:20:23.365Z,14.43
2017-11-06T12:21:23.361Z,13.91
2017-11-06T12:22:23.686Z,13.87
2017-11-06T12:23:23.674Z,13.65
2017-11-06T12:24:23.766Z,13.46
2017-11-06T12:25:23.318Z,13.29
2017-11-06T12:26:23.311Z,13.07
2017-11-06T12:27:23.635Z,12.99
2017-11-06T12:28:23.294Z,12.82
2017-11-06T12:29:23.635Z,12.71
2017-11-06T12:30:23.288Z,12.69
2017-11-06T12:31:23.603Z,12.6
2017-11-06T12:32:23.584Z,12.42
2017-11-06T12:33:23.573Z,12.39
2017-11-06T12:34:23.228Z,12.48
2017-11-06T12:35:23.223Z,12.34
2017-11-06T12:36:23.211Z,12.33
2017-11-06T12:37:23.195Z,12.29
2017-11-06T12:38:23.519Z,12.2
2017-11-06T12:39:23.273Z,12.26
2017-11-06T12:40:23.175Z,12.13
2017-11-06T12:41:23.485Z,12.2
2017-11-06T12:42:23.476Z,12.19
2017-11-06T12:43:23.454Z,12.24
2017-11-06T12:44:23.265Z,12.2
2017-11-06T12:45:23.107Z,12.2
2017-11-06T12:46:23.102Z,12.16
2017-11-06T12:47:22.750Z,12.24
2017-11-06T12:48:22.735Z,12.2
2017-11-06T12:49:23.178Z,12.2
2017-11-06T12:50:23.041Z,12.2
2017-11-06T12:51:23.029Z,12.23
2017-11-06T12:52:23.367Z,12.26
2017-11-06T12:53:23.016Z,12.15
2017-11-06T12:54:23.334Z,12.13
2017-11-06T12:55:22.980Z,12.19
2017-11-06T12:56:23.303Z,12.09
2017-11-06T12:57:22.956Z,12.06
2017-11-06T12:58:23.286Z,11.94
2017-11-06T12:59:23.273Z,11.94
2017-11-06T13:00:22.922Z,11.94
2017-11-06T13:01:22.572Z,11.96
2017-11-06T13:02:23.234Z,11.93
2017-11-06T13:03:23.212Z,11.94
2017-11-06T13:04:22.536Z,11.9
2017-11-06T13:05:22.858Z,11.94
2017-11-06T13:06:23.180Z,12.02
2017-11-06T13:07:23.175Z,11.96
2017-11-06T13:08:22.817Z,11.99
2017-11-06T13:09:22.469Z,12.06
2017-11-06T13:10:22.793Z,12.13
2017-11-06T13:11:22.446Z,12.19
2017-11-06T13:12:22.434Z,12.05
2017-11-06T13:13:23.086Z,12.08
2017-11-06T13:14:23.077Z,12.01
2017-11-06T13:15:23.056Z,11.9
2017-11-06T13:16:23.056Z,11.9
2017-11-06T13:17:22.699Z,11.86
2017-11-06T13:18:23.023Z,11.9